createdAt,value
2018-09-02T00:00:38.434Z,12.83
2018-09-02T00:03:07.443Z,12.43
2018-09-02T00:05:36.344Z,13.87
2018-09-02T00:08:05.455Z,13.03
2018-09-02T00:10:34.504Z,13.23
2018-09-02T00:13:03.364Z,12.70
2018-09-02T00:15:32.614Z,13.10
2018-09-02T00:18:01.210Z,12.83
2018-09-02T00:20:30.349Z,12.17
2018-09-02T00:22:59.612Z,12.50
2018-09-02T00:25:28.334Z,11.90
2018-09-02T00:27:56.983Z,12.87
2018-09-02T00:30:25.996Z,12.27
2018-09-02T00:32:54.714Z,13.03
2018-09-02T00:35:23.472Z,12.50
2018-09-02T00:37:52.780Z,11.77
2018-09-02T00:40:21.534Z,13.77
2018-09-02T00:42:50.559Z,13.20
2018-09-02T00:45:19.619Z,12.67
2018-09-02T00:47:48.419Z,11.50
2018-09-02T00:50:17.208Z,13.13
2018-09-02T00:52:46.274Z,11.93
2018-09-02T00:55:14.994Z,13.07
2018-09-02T00:57:43.678Z,11.90
2018-09-02T01:00:12.684Z,12.53
2018-09-02T01:02:41.463Z,12.03
2018-09-02T01:05:10.479Z,13.03
2018-09-02T01:07:39.927Z,12.30
2018-09-02T01:10:09.159Z,13.37
2018-09-02T01:12:37.947Z,12.97
2018-09-02T01:15:07.327Z,12.00
2018-09-02T01:17:36.211Z,12.77
2018-09-02T01:20:05.338Z,13.17
2018-09-02T01:22:34.446Z,13.37
2018-09-02T01:25:03.250Z,13.77
2018-09-02T01:27:31.845Z,13.00
2018-09-02T01:30:00.968Z,14.23
2018-09-02T01:32:30.083Z,13.80
2018-09-02T01:34:58.910Z,13.30
2018-09-02T01:37:28.346Z,13.90
2018-09-02T01:39:57.155Z,13.77
2018-09-02T01:42:26.155Z,13.57
2018-09-02T01:44:55.228Z,12.60
2018-09-02T01:47:24.271Z,13.00
2018-09-02T01:49:53.243Z,12.70
2018-09-02T01:52:22.171Z,13.40
2018-09-02T01:54:50.902Z,13.23
2018-09-02T01:57:19.646Z,13.40
2018-09-02T01:59:48.748Z,13.87
2018-09-02T02:02:17.939Z,14.37
2018-09-02T02:04:46.932Z,13.33
2018-09-02T02:07:16.022Z,12.93
2018-09-02T02:09:44.917Z,12.80
2018-09-02T02:12:13.987Z,12.80
2018-09-02T02:14:43.051Z,13.10
2018-09-02T02:17:11.813Z,13.30
2018-09-02T02:19:40.543Z,13.70
2018-09-02T02:22:09.511Z,13.50
2018-09-02T02:24:44.691Z,12.07
2018-09-02T02:27:13.681Z,13.37
2018-09-02T02:29:42.570Z,13.20
2018-09-02T02:32:11.494Z,12.57
2018-09-02T02:34:40.612Z,13.50
2018-09-02T02:37:09.687Z,12.63
2018-09-02T02:39:38.373Z,12.40
2018-09-02T02:42:07.783Z,13.73
2018-09-02T02:44:36.870Z,13.90
2018-09-02T02:47:05.913Z,13.37
2018-09-02T02:49:35.290Z,13.70
2018-09-02T02:52:04.049Z,12.87
2018-09-02T02:54:32.822Z,14.30
2018-09-02T02:57:01.668Z,13.47
2018-09-02T02:59:30.464Z,12.60
2018-09-02T03:01:59.510Z,13.30
2018-09-02T03:04:28.343Z,12.77
2018-09-02T03:06:57.306Z,12.93
2018-09-02T03:09:26.170Z,12.47
2018-09-02T03:11:55.500Z,14.03
2018-09-02T03:14:24.487Z,13.90
2018-09-02T03:16:53.589Z,11.90
2018-09-02T03:19:22.384Z,13.87
2018-09-02T03:21:51.175Z,12.67
2018-09-02T03:24:20.438Z,13.77
2018-09-02T03:26:49.069Z,13.00
2018-09-02T03:29:18.047Z,14.63
2018-09-02T03:31:46.883Z,14.10
2018-09-02T03:34:15.807Z,11.70
2018-09-02T03:36:44.825Z,14.00
2018-09-02T03:39:14.105Z,13.87
2018-09-02T03:41:43.174Z,12.63
2018-09-02T03:44:11.908Z,13.03
2018-09-02T03:46:41.127Z,12.60
2018-09-02T03:49:09.906Z,13.77
2018-09-02T03:51:38.877Z,13.27
2018-09-02T03:54:07.599Z,13.57
2018-09-02T03:56:36.402Z,13.13
2018-09-02T03:59:05.328Z,13.60
2018-09-02T04:01:34.581Z,14.50
2018-09-02T04:04:03.714Z,13.43
2018-09-02T04:06:32.650Z,14.60
2018-09-02T04:09:01.975Z,13.70
2018-09-02T04:11:31.003Z,13.13
2018-09-02T04:13:59.888Z,13.77
2018-09-02T04:16:28.902Z,15.23
2018-09-02T04:18:58.479Z,14.07
2018-09-02T04:21:27.618Z,14.30
2018-09-02T04:23:56.414Z,14.37
2018-09-02T04:26:25.095Z,15.20
2018-09-02T04:28:54.114Z,13.43
2018-09-02T04:31:23.319Z,13.87
2018-09-02T04:33:52.155Z,13.90
2018-09-02T04:36:21.666Z,14.40
2018-09-02T04:38:50.511Z,15.47
2018-09-02T04:41:19.667Z,15.97
2018-09-02T04:43:49.035Z,17.13
2018-09-02T04:46:18.202Z,15.90
2018-09-02T04:48:47.106Z,14.40
2018-09-02T04:51:15.775Z,14.03
2018-09-02T04:53:44.708Z,14.10
2018-09-02T04:56:13.551Z,14.33
2018-09-02T04:58:42.338Z,14.77
2018-09-02T05:01:11.596Z,15.03
2018-09-02T05:03:40.506Z,16.67
2018-09-02T05:06:09.220Z,19.40
2018-09-02T05:08:38.264Z,15.23
2018-09-02T05:11:07.141Z,15.17
2018-09-02T05:13:35.944Z,16.77
2018-09-02T05:16:05.111Z,16.17
2018-09-02T05:18:33.732Z,17.27
2018-09-02T05:21:03.001Z,18.23
2018-09-02T05:23:32.201Z,16.63
2018-09-02T05:26:00.965Z,16.70
2018-09-02T05:28:29.958Z,15.80
2018-09-02T05:30:59.220Z,17.47
2018-09-02T05:33:28.161Z,16.43
2018-09-02T05:35:57.200Z,15.30
2018-09-02T05:38:26.467Z,17.60
2018-09-02T05:40:55.447Z,16.47
2018-09-02T05:43:24.159Z,16.77
2018-09-02T05:45:53.246Z,16.03
2018-09-02T05:48:22.214Z,15.93
2018-09-02T05:50:50.858Z,16.03
2018-09-02T05:53:19.882Z,16.67
2018-09-02T05:55:48.652Z,16.93
2018-09-02T05:58:17.771Z,17.27
2018-09-02T06:00:47.119Z,16.80
2018-09-02T06:03:16.167Z,15.63
2018-09-02T06:05:45.076Z,15.37
2018-09-02T06:08:13.911Z,16.23
2018-09-02T06:10:42.918Z,16.97
2018-09-02T06:13:14.279Z,20.33
2018-09-02T06:15:43.338Z,22.70
2018-09-02T06:18:12.842Z,21.83
2018-09-02T06:20:41.591Z,22.03
2018-09-02T06:23:10.486Z,26.70
2018-09-02T06:25:39.971Z,39.83
2018-09-02T06:28:08.893Z,36.53
2018-09-02T06:30:37.938Z,24.53
2018-09-02T06:33:07.103Z,24.57
2018-09-02T06:35:35.845Z,20.50
2018-09-02T06:38:04.961Z,21.53
2018-09-02T06:40:34.191Z,21.57
2018-09-02T06:43:02.955Z,18.97
2018-09-02T06:45:32.001Z,15.40
2018-09-02T06:48:01.151Z,15.20
2018-09-02T06:50:30.034Z,16.97
2018-09-02T06:52:58.764Z,14.63
2018-09-02T06:55:27.954Z,14.97
2018-09-02T06:57:57.037Z,16.30
2018-09-02T07:00:25.994Z,14.73
2018-09-02T07:02:55.053Z,16.50
2018-09-02T07:05:23.754Z,14.90
2018-09-02T07:07:52.696Z,15.77
2018-09-02T07:10:21.820Z,13.30
2018-09-02T07:12:50.929Z,13.67
2018-09-02T07:15:19.841Z,14.93
2018-09-02T07:17:49.077Z,13.03
2018-09-02T07:20:17.838Z,15.90
2018-09-02T07:22:46.563Z,13.77
2018-09-02T07:25:15.713Z,15.40
2018-09-02T07:27:44.854Z,15.03
2018-09-02T07:30:13.798Z,16.27
2018-09-02T07:32:42.851Z,16.20
2018-09-02T07:35:12.246Z,16.43
2018-09-02T07:37:41.035Z,14.83
2018-09-02T07:40:10.206Z,16.37
2018-09-02T07:42:39.202Z,14.85
2018-09-02T07:45:09.620Z,14.38
2018-09-02T07:47:38.304Z,14.73
2018-09-02T07:50:07.284Z,14.05
2018-09-02T07:52:36.032Z,16.48
2018-09-02T07:55:05.425Z,13.48
2018-09-02T07:57:34.843Z,13.70
2018-09-02T08:00:03.755Z,13.28
2018-09-02T08:02:32.786Z,14.05
2018-09-02T08:05:02.010Z,13.68
2018-09-02T08:07:31.332Z,14.50
2018-09-02T08:10:00.425Z,14.35
2018-09-02T08:12:29.722Z,14.18
2018-09-02T08:14:58.623Z,12.98
2018-09-02T08:17:27.431Z,12.93
2018-09-02T08:19:56.200Z,12.78
2018-09-02T08:22:24.974Z,13.38
2018-09-02T08:24:54.344Z,13.18
2018-09-02T08:27:23.166Z,13.25
2018-09-02T08:29:52.026Z,13.00
2018-09-02T08:32:21.580Z,12.55
2018-09-02T08:34:50.847Z,14.00
2018-09-02T08:37:19.679Z,13.45
2018-09-02T08:39:49.079Z,12.73
2018-09-02T08:42:17.813Z,13.55
2018-09-02T08:44:46.760Z,12.90
2018-09-02T08:47:16.186Z,12.75
2018-09-02T08:49:44.754Z,12.07
2018-09-02T08:52:13.780Z,11.63
2018-09-02T08:54:42.706Z,12.47
2018-09-02T08:57:11.712Z,11.45
2018-09-02T08:59:40.398Z,11.95
2018-09-02T09:02:09.493Z,12.37
2018-09-02T09:04:38.186Z,11.45
2018-09-02T09:07:07.118Z,12.75
2018-09-02T09:09:36.500Z,11.93
2018-09-02T09:12:05.910Z,11.38
2018-09-02T09:14:34.913Z,11.48
2018-09-02T09:17:03.825Z,11.05
2018-09-02T09:19:32.407Z,10.72
2018-09-02T09:22:01.208Z,9.73
2018-09-02T09:24:30.067Z,10.63
2018-09-02T09:26:58.816Z,10.43
2018-09-02T09:29:27.854Z,9.98
2018-09-02T09:31:57.158Z,9.45
2018-09-02T09:34:26.635Z,9.73
2018-09-02T09:36:55.602Z,9.18
2018-09-02T09:39:24.405Z,8.53
2018-09-02T09:41:53.618Z,8.43
2018-09-02T09:44:22.547Z,9.15
2018-09-02T09:46:51.694Z,10.10
2018-09-02T09:49:20.835Z,8.30
2018-09-02T09:51:49.876Z,8.40
2018-09-02T09:54:18.681Z,8.95
2018-09-02T09:56:47.976Z,8.53
2018-09-02T09:59:17.282Z,9.30
2018-09-02T10:01:46.278Z,8.45
2018-09-02T10:04:15.595Z,9.30
2018-09-02T10:06:44.366Z,8.98
2018-09-02T10:09:15.007Z,8.38
2018-09-02T10:11:44.787Z,8.13
2018-09-02T10:14:13.666Z,7.42
2018-09-02T10:16:42.410Z,8.80
2018-09-02T10:19:11.414Z,9.98
2018-09-02T10:21:40.174Z,9.23
2018-09-02T10:24:09.182Z,7.17
2018-09-02T10:26:38.469Z,6.35
2018-09-02T10:29:07.473Z,6.17
2018-09-02T10:31:36.498Z,7.72
2018-09-02T10:34:05.925Z,7.10
2018-09-02T10:36:35.196Z,6.28
2018-09-02T10:39:05.067Z,8.18
2018-09-02T10:41:34.399Z,7.72
2018-09-02T10:44:03.249Z,6.55
2018-09-02T10:46:32.066Z,7.80
2018-09-02T10:49:00.784Z,7.20
2018-09-02T10:51:29.774Z,7.40
2018-09-02T10:53:58.847Z,6.33
2018-09-02T10:56:27.784Z,6.87
2018-09-02T10:58:56.927Z,6.35
2018-09-02T11:01:25.793Z,7.60
2018-09-02T11:03:54.703Z,6.67
2018-09-02T11:06:23.393Z,8.28
2018-09-02T11:08:52.608Z,7.00
2018-09-02T11:11:22.005Z,7.72
2018-09-02T11:13:51.465Z,7.22
2018-09-02T11:16:20.437Z,7.10
2018-09-02T11:18:49.177Z,5.90
2018-09-02T11:21:17.929Z,7.03
2018-09-02T11:23:50.171Z,7.50
2018-09-02T11:26:19.457Z,6.90
2018-09-02T11:28:48.383Z,7.15
2018-09-02T11:31:17.697Z,7.08
2018-09-02T11:33:46.573Z,6.80
2018-09-02T11:36:15.780Z,6.28
2018-09-02T11:38:45.460Z,5.90
2018-09-02T11:41:14.640Z,7.05
2018-09-02T11:43:43.690Z,7.62
2018-09-02T11:46:12.743Z,6.58
2018-09-02T11:48:41.472Z,6.40
2018-09-02T11:51:10.414Z,5.83
2018-09-02T11:53:39.635Z,6.45
2018-09-02T11:56:08.709Z,5.95
2018-09-02T11:58:37.567Z,6.33
2018-09-02T12:01:06.813Z,6.25
2018-09-02T12:03:35.939Z,6.60
2018-09-02T12:06:05.035Z,6.12
2018-09-02T12:08:34.137Z,5.90
2018-09-02T12:11:03.091Z,5.67
2018-09-02T12:13:31.870Z,6.03
2018-09-02T12:16:00.898Z,5.78
2018-09-02T12:18:29.931Z,6.45
2018-09-02T12:20:59.093Z,5.75
2018-09-02T12:23:28.477Z,6.55
2018-09-02T12:25:57.478Z,6.25
2018-09-02T12:28:26.761Z,6.47
2018-09-02T12:30:55.983Z,6.15
2018-09-02T12:33:24.714Z,5.95
2018-09-02T12:35:53.895Z,6.80
2018-09-02T12:38:23.162Z,5.47
2018-09-02T12:40:52.086Z,6.35
2018-09-02T12:43:20.963Z,5.45
2018-09-02T12:45:50.269Z,6.55
2018-09-02T12:48:19.553Z,5.80
2018-09-02T12:50:48.313Z,6.58
2018-09-02T12:53:17.235Z,7.15
2018-09-02T12:55:46.205Z,6.53
2018-09-02T12:58:15.422Z,6.85
2018-09-02T13:00:44.611Z,6.65
2018-09-02T13:03:13.397Z,6.97
2018-09-02T13:05:42.295Z,6.50
2018-09-02T13:08:11.320Z,5.97
2018-09-02T13:10:40.262Z,6.50
2018-09-02T13:13:09.003Z,6.20
2018-09-02T13:15:38.284Z,6.08
2018-09-02T13:18:07.014Z,6.53
2018-09-02T13:20:36.031Z,6.58
2018-09-02T13:23:05.358Z,7.33
2018-09-02T13:25:34.314Z,5.87
2018-09-02T13:28:03.124Z,6.65
2018-09-02T13:30:32.352Z,6.17
2018-09-02T13:33:01.153Z,6.45
2018-09-02T13:35:30.098Z,7.83
2018-09-02T13:40:39.876Z,6.15
2018-09-02T13:43:08.680Z,6.22
2018-09-02T13:45:37.384Z,7.05
2018-09-02T13:48:06.390Z,6.97
2018-09-02T13:50:35.847Z,8.28
2018-09-02T13:53:04.848Z,7.78
2018-09-02T13:55:33.619Z,6.40
2018-09-02T13:58:02.663Z,8.38
2018-09-02T14:00:31.363Z,7.37
2018-09-02T14:03:00.423Z,6.92
2018-09-02T14:05:29.135Z,6.50
2018-09-02T14:07:58.338Z,6.83
2018-09-02T14:10:27.030Z,7.28
2018-09-02T14:12:55.966Z,7.58
2018-09-02T14:15:24.758Z,7.42
2018-09-02T14:17:53.814Z,8.65
2018-09-02T14:20:23.289Z,7.90
2018-09-02T14:22:52.523Z,7.22
2018-09-02T14:25:21.441Z,7.72
2018-09-02T14:27:50.998Z,7.45
2018-09-02T14:30:20.084Z,7.80
2018-09-02T14:32:49.147Z,7.30
2018-09-02T14:35:18.386Z,7.58
2018-09-02T14:37:47.204Z,8.40
2018-09-02T14:40:15.916Z,7.40
2018-09-02T14:42:45.141Z,7.70
2018-09-02T14:45:13.946Z,8.30
2018-09-02T14:47:42.922Z,7.65
2018-09-02T14:50:12.223Z,7.92
2018-09-02T14:52:41.299Z,9.23
2018-09-02T14:55:10.594Z,8.23
2018-09-02T14:57:40.031Z,8.80
2018-09-02T15:00:08.878Z,8.63
2018-09-02T15:02:37.743Z,8.08
2018-09-02T15:05:06.815Z,8.50
2018-09-02T15:07:35.522Z,8.80
2018-09-02T15:10:04.360Z,8.98
2018-09-02T15:12:33.492Z,8.13
2018-09-02T15:15:02.471Z,8.95
2018-09-02T15:17:31.440Z,8.35
2018-09-02T15:20:00.799Z,8.25
2018-09-02T15:22:29.750Z,8.33
2018-09-02T15:24:58.592Z,8.40
2018-09-02T15:27:27.977Z,8.98
2018-09-02T15:29:56.953Z,8.15
2018-09-02T15:32:25.726Z,8.00
2018-09-02T15:34:54.659Z,7.62
2018-09-02T15:37:23.626Z,9.25
2018-09-02T15:39:52.323Z,8.15
2018-09-02T15:42:21.530Z,8.70
2018-09-02T15:44:50.362Z,8.33
2018-09-02T15:47:19.296Z,7.75
2018-09-02T15:49:48.503Z,7.90
2018-09-02T15:52:17.198Z,7.75
2018-09-02T15:54:45.852Z,8.10
2018-09-02T15:57:15.121Z,9.23
2018-09-02T15:59:43.846Z,7.55
2018-09-02T16:02:12.938Z,8.33
2018-09-02T16:04:42.470Z,8.95
2018-09-02T16:07:11.513Z,9.23
2018-09-02T16:09:40.267Z,9.65
2018-09-02T16:12:09.483Z,8.78
2018-09-02T16:14:38.500Z,8.18
2018-09-02T16:17:07.451Z,8.88
2018-09-02T16:19:36.462Z,8.85
2018-09-02T16:22:05.562Z,8.53
2018-09-02T16:24:34.733Z,10.28
2018-09-02T16:27:03.821Z,9.18
2018-09-02T16:29:32.839Z,10.85
2018-09-02T16:32:01.678Z,9.75
2018-09-02T16:34:30.791Z,10.23
2018-09-02T16:36:59.687Z,8.80
2018-09-02T16:39:28.334Z,9.58
2018-09-02T16:41:57.143Z,8.05
2018-09-02T16:44:26.302Z,9.10
2018-09-02T16:46:55.286Z,9.98
2018-09-02T16:49:24.352Z,10.28
2018-09-02T16:51:53.227Z,9.70
2018-09-02T16:54:22.063Z,9.43
2018-09-02T16:56:51.243Z,8.48
2018-09-02T16:59:20.247Z,8.20
2018-09-02T17:01:49.054Z,9.25
2018-09-02T17:04:18.755Z,10.80
2018-09-02T17:06:47.709Z,10.58
2018-09-02T17:09:16.531Z,10.55
2018-09-02T17:11:45.361Z,9.98
2018-09-02T17:14:13.927Z,10.25
2018-09-02T17:16:43.263Z,9.60
2018-09-02T17:19:16.735Z,9.50
2018-09-02T17:21:45.732Z,9.45
2018-09-02T17:24:14.779Z,10.28
2018-09-02T17:26:43.590Z,9.48
2018-09-02T17:29:12.652Z,9.40
2018-09-02T17:31:41.395Z,9.00
2018-09-02T17:34:10.671Z,8.00
2018-09-02T17:36:39.495Z,8.08
2018-09-02T17:39:10.178Z,7.92
2018-09-02T17:41:38.964Z,10.45
2018-09-02T17:44:07.967Z,9.93
2018-09-02T17:46:37.121Z,9.35
2018-09-02T17:49:06.327Z,9.80
2018-09-02T17:51:35.475Z,9.23
2018-09-02T17:54:04.365Z,8.93
2018-09-02T17:56:33.580Z,9.30
2018-09-02T17:59:02.367Z,9.98
2018-09-02T18:01:31.566Z,9.95
2018-09-02T18:04:00.294Z,11.18
2018-09-02T18:06:28.954Z,11.20
2018-09-02T18:08:57.622Z,11.45
2018-09-02T18:11:26.210Z,11.28
2018-09-02T18:13:55.196Z,12.10
2018-09-02T18:16:24.342Z,11.73
2018-09-02T18:18:53.268Z,10.82
2018-09-02T18:21:21.978Z,11.20
2018-09-02T18:23:50.864Z,10.72
2018-09-02T18:26:20.005Z,10.65
2018-09-02T18:28:49.671Z,10.28
2018-09-02T18:31:18.735Z,9.90
2018-09-02T18:33:47.532Z,10.68
2018-09-02T18:36:16.391Z,10.50
2018-09-02T18:38:45.099Z,11.22
2018-09-02T18:41:13.899Z,11.50
2018-09-02T18:43:42.844Z,10.88
2018-09-02T18:46:12.394Z,10.98
2018-09-02T18:48:41.303Z,10.50
2018-09-02T18:51:09.941Z,10.82
2018-09-02T18:53:38.620Z,9.90
2018-09-02T18:56:07.464Z,10.15
2018-09-02T18:58:36.698Z,10.20
2018-09-02T19:01:05.723Z,9.03
2018-09-02T19:03:34.733Z,10.32
2018-09-02T19:06:03.602Z,9.70
2018-09-02T19:08:32.543Z,9.88
2018-09-02T19:11:01.420Z,10.30
2018-09-02T19:13:30.109Z,10.18
2018-09-02T19:15:58.937Z,9.78
2018-09-02T19:18:27.870Z,8.58
2018-09-02T19:20:56.681Z,8.33
2018-09-02T19:23:25.595Z,9.18
2018-09-02T19:25:54.714Z,8.33
2018-09-02T19:28:23.445Z,9.73
2018-09-02T19:30:52.220Z,9.60
2018-09-02T19:33:21.055Z,8.73
2018-09-02T19:35:49.727Z,8.83
2018-09-02T19:38:18.327Z,8.53
2018-09-02T19:40:47.348Z,9.23
2018-09-02T19:43:16.372Z,8.63
2018-09-02T19:45:45.130Z,10.28
2018-09-02T19:48:14.231Z,9.33
2018-09-02T19:50:43.383Z,9.10
2018-09-02T19:53:12.711Z,8.33
2018-09-02T19:55:41.680Z,9.18
2018-09-02T19:58:10.598Z,9.10
2018-09-02T20:00:39.541Z,8.85
2018-09-02T20:03:08.425Z,9.50
2018-09-02T20:05:37.082Z,8.47
2018-09-02T20:08:05.848Z,9.58
2018-09-02T20:10:35.070Z,9.60
2018-09-02T20:13:03.998Z,10.18
2018-09-02T20:15:33.241Z,8.43
2018-09-02T20:18:02.402Z,8.88
2018-09-02T20:20:31.320Z,8.03
2018-09-02T20:23:00.436Z,8.05
2018-09-02T20:25:29.447Z,9.33
2018-09-02T20:27:58.322Z,9.15
2018-09-02T20:30:27.247Z,9.27
2018-09-02T20:32:56.131Z,9.25
2018-09-02T20:35:24.795Z,8.53
2018-09-02T20:37:53.386Z,8.38
2018-09-02T20:40:22.538Z,7.57
2018-09-02T20:42:51.552Z,8.43
2018-09-02T20:45:20.520Z,9.30
2018-09-02T20:47:49.636Z,8.43
2018-09-02T20:50:18.640Z,9.17
2018-09-02T20:52:47.491Z,8.70
2018-09-02T20:55:16.322Z,9.35
2018-09-02T20:57:45.266Z,8.20
2018-09-02T21:00:14.430Z,8.35
2018-09-02T21:02:43.103Z,9.03
2018-09-02T21:05:11.923Z,8.07
2018-09-02T21:07:40.581Z,8.43
2018-09-02T21:10:09.344Z,8.13
2018-09-02T21:12:39.273Z,8.47
2018-09-02T21:15:08.035Z,6.67
2018-09-02T21:17:36.979Z,8.57
2018-09-02T21:20:06.108Z,7.90
2018-09-02T21:22:35.027Z,7.60
2018-09-02T21:25:04.273Z,7.87
2018-09-02T21:27:33.335Z,8.53
2018-09-02T21:30:02.458Z,9.00
2018-09-02T21:32:31.187Z,8.50
2018-09-02T21:34:59.943Z,7.70
2018-09-02T21:37:28.671Z,8.87
2018-09-02T21:39:57.411Z,8.55
2018-09-02T21:42:26.514Z,8.37
2018-09-02T21:44:55.719Z,7.73
2018-09-02T21:47:24.340Z,8.57
2018-09-02T21:49:53.422Z,8.83
2018-09-02T21:52:22.240Z,8.20
2018-09-02T21:54:51.071Z,8.80
2018-09-02T21:57:19.921Z,8.07
2018-09-02T21:59:49.012Z,8.17
2018-09-02T22:02:17.685Z,7.67
2018-09-02T22:04:46.438Z,8.43
2018-09-02T22:07:15.148Z,7.67
2018-09-02T22:09:43.963Z,8.53
2018-09-02T22:12:12.800Z,7.60
2018-09-02T22:14:41.643Z,9.00
2018-09-02T22:17:10.591Z,8.83
2018-09-02T22:19:39.340Z,7.47
2018-09-02T22:22:08.146Z,8.00
2018-09-02T22:24:36.915Z,9.27
2018-09-02T22:27:05.735Z,8.33
2018-09-02T22:29:34.677Z,8.97
2018-09-02T22:32:03.569Z,8.50
2018-09-02T22:34:32.342Z,8.53
2018-09-02T22:37:01.072Z,8.50
2018-09-02T22:39:30.003Z,8.83
2018-09-02T22:41:59.188Z,8.97
2018-09-02T22:44:27.854Z,8.70
2018-09-02T22:46:56.893Z,8.70
2018-09-02T22:49:25.879Z,8.87
2018-09-02T22:51:54.870Z,9.63
2018-09-02T22:54:23.970Z,9.57
2018-09-02T22:56:53.054Z,9.17
2018-09-02T22:59:22.217Z,8.13
2018-09-02T23:01:50.941Z,9.37
2018-09-02T23:04:19.668Z,9.80
2018-09-02T23:06:48.560Z,9.27
2018-09-02T23:09:17.375Z,8.90
2018-09-02T23:11:46.271Z,7.90
2018-09-02T23:14:15.237Z,10.00
2018-09-02T23:16:44.124Z,10.13
2018-09-02T23:19:12.988Z,8.77
2018-09-02T23:21:41.875Z,8.33
2018-09-02T23:24:10.742Z,9.93
2018-09-02T23:26:39.516Z,9.00
2018-09-02T23:29:08.493Z,8.30
2018-09-02T23:31:37.310Z,8.90
2018-09-02T23:34:06.295Z,9.47
2018-09-02T23:36:35.265Z,9.40
2018-09-02T23:39:05.352Z,11.80
2018-09-02T23:41:34.393Z,9.17
2018-09-02T23:44:03.615Z,9.37
2018-09-02T23:46:32.419Z,9.17
2018-09-02T23:49:01.422Z,9.10
2018-09-02T23:51:30.278Z,8.87
2018-09-02T23:53:59.212Z,9.47
2018-09-02T23:56:28.182Z,7.87
2018-09-02T23:58:57.295Z,8.87
